Terminal Aerodrome Forecast
Issued by NWS Boise, ID

Home | Current Version | Previous Version | Text Only | Print | Product List | Glossary On
Versions: 1 2 3 4 5 6 7 8 9 10 11 12 13 14 15 16 17 18 19
000
FTUS45 KBOI 111122
TAFBNO
TAF
KBNO 111122Z 1112/1212 VRB03KT 3SM BR BKN003
     FM112100 06006KT 6SM HZ FEW005
     FM120200 VRB03KT P6SM OVC005=

USA.gov is the U.S. government's official web portal to all federal, state and local government web resources and services.